sensor_id;sensor_type;location;lat;lon;timestamp;temperature;humidity
18541;DHT22;9400;50.924;5.328;2022-12-01T00:01:11;7.50;99.90
18541;DHT22;9400;50.924;5.328;2022-12-01T00:03:39;7.50;99.90
18541;DHT22;9400;50.924;5.328;2022-12-01T00:06:10;7.40;99.90
18541;DHT22;9400;50.924;5.328;2022-12-01T00:08:40;7.50;99.90
18541;DHT22;9400;50.924;5.328;2022-12-01T00:11:29;7.50;99.90
18541;DHT22;9400;50.924;5.328;2022-12-01T00:13:58;7.40;99.90
18541;DHT22;9400;50.924;5.328;2022-12-01T00:16:54;7.40;99.90
18541;DHT22;9400;50.924;5.328;2022-12-01T00:19:24;7.30;99.90
18541;DHT22;9400;50.924;5.328;2022-12-01T00:21:51;7.30;99.90
18541;DHT22;9400;50.924;5.328;2022-12-01T00:24:19;7.40;99.90
18541;DHT22;9400;50.924;5.328;2022-12-01T00:26:48;7.40;99.90
18541;DHT22;9400;50.924;5.328;2022-12-01T00:29:17;7.40;99.90
18541;DHT22;9400;50.924;5.328;2022-12-01T00:31:44;7.40;99.90
18541;DHT22;9400;50.924;5.328;2022-12-01T00:34:20;7.40;99.90
18541;DHT22;9400;50.924;5.328;2022-12-01T00:36:48;7.40;99.90
18541;DHT22;9400;50.924;5.328;2022-12-01T00:39:16;7.40;99.90
18541;DHT22;9400;50.924;5.328;2022-12-01T00:41:44;7.40;99.90
18541;DHT22;9400;50.924;5.328;2022-12-01T00:44:11;7.30;99.90
18541;DHT22;9400;50.924;5.328;2022-12-01T00:46:40;7.30;99.90
18541;DHT22;9400;50.924;5.328;2022-12-01T00:49:11;7.20;99.90
18541;DHT22;9400;50.924;5.328;2022-12-01T00:51:39;7.20;99.90
18541;DHT22;9400;50.924;5.328;2022-12-01T00:54:06;7.20;99.90
18541;DHT22;9400;50.924;5.328;2022-12-01T00:56:34;7.30;99.90
18541;DHT22;9400;50.924;5.328;2022-12-01T00:59:01;7.30;99.90
18541;DHT22;9400;50.924;5.328;2022-12-01T01:01:28;7.30;99.90
18541;DHT22;9400;50.924;5.328;2022-12-01T01:03:58;7.20;99.90
18541;DHT22;9400;50.924;5.328;2022-12-01T01:06:25;7.20;99.90
18541;DHT22;9400;50.924;5.328;2022-12-01T01:08:52;7.20;99.90
18541;DHT22;9400;50.924;5.328;2022-12-01T01:11:20;7.20;99.90
18541;DHT22;9400;50.924;5.328;2022-12-01T01:13:48;7.20;99.90
18541;DHT22;9400;50.924;5.328;2022-12-01T01:16:18;7.30;99.90
18541;DHT22;9400;50.924;5.328;2022-12-01T01:18:45;7.30;99.90
18541;DHT22;9400;50.924;5.328;2022-12-01T01:21:17;7.20;99.90
18541;DHT22;9400;50.924;5.328;2022-12-01T01:23:46;7.20;99.90
18541;DHT22;9400;50.924;5.328;2022-12-01T01:26:15;7.10;99.90
18541;DHT22;9400;50.924;5.328;2022-12-01T01:28:44;7.20;99.90
18541;DHT22;9400;50.924;5.328;2022-12-01T01:31:14;7.20;99.90
18541;DHT22;9400;50.924;5.328;2022-12-01T01:33:42;7.10;99.90
18541;DHT22;9400;50.924;5.328;2022-12-01T01:36:10;7.10;99.90
18541;DHT22;9400;50.924;5.328;2022-12-01T01:38:39;7.10;99.90
18541;DHT22;9400;50.924;5.328;2022-12-01T01:41:07;7.20;99.90
18541;DHT22;9400;50.924;5.328;2022-12-01T01:43:40;7.20;99.90
18541;DHT22;9400;50.924;5.328;2022-12-01T01:46:10;7.20;99.90
18541;DHT22;9400;50.924;5.328;2022-12-01T01:48:40;7.10;99.90
18541;DHT22;9400;50.924;5.328;2022-12-01T01:51:08;7.10;99.90
18541;DHT22;9400;50.924;5.328;2022-12-01T01:53:38;7.10;99.90
18541;DHT22;9400;50.924;5.328;2022-12-01T01:56:07;7.20;99.90
18541;DHT22;9400;50.924;5.328;2022-12-01T01:58:36;7.20;99.90
18541;DHT22;9400;50.924;5.328;2022-12-01T02:01:05;7.10;99.90
18541;DHT22;9400;50.924;5.328;2022-12-01T02:03:35;7.10;99.90
18541;DHT22;9400;50.924;5.328;2022-12-01T02:06:04;7.10;99.90
18541;DHT22;9400;50.924;5.328;2022-12-01T02:08:34;7.00;99.90
18541;DHT22;9400;50.924;5.328;2022-12-01T02:11:18;7.10;99.90
18541;DHT22;9400;50.924;5.328;2022-12-01T02:13:52;6.90;99.90
18541;DHT22;9400;50.924;5.328;2022-12-01T02:16:27;7.00;99.90
18541;DHT22;9400;50.924;5.328;2022-12-01T02:19:06;7.10;99.90
18541;DHT22;9400;50.924;5.328;2022-12-01T02:21:47;7.10;99.90
18541;DHT22;9400;50.924;5.328;2022-12-01T02:27:42;7.00;99.90
18541;DHT22;9400;50.924;5.328;2022-12-01T02:30:15;7.10;99.90
18541;DHT22;9400;50.924;5.328;2022-12-01T02:32:58;7.10;99.90
18541;DHT22;9400;50.924;5.328;2022-12-01T02:35:32;7.00;99.90
18541;DHT22;9400;50.924;5.328;2022-12-01T02:38:09;7.00;99.90
18541;DHT22;9400;50.924;5.328;2022-12-01T02:40:42;7.00;99.90
18541;DHT22;9400;50.924;5.328;2022-12-01T02:43:17;7.10;99.90
18541;DHT22;9400;50.924;5.328;2022-12-01T02:45:48;7.00;99.90
18541;DHT22;9400;50.924;5.328;2022-12-01T02:48:22;7.10;99.90
18541;DHT22;9400;50.924;5.328;2022-12-01T02:50:52;7.00;99.90
18541;DHT22;9400;50.924;5.328;2022-12-01T02:53:21;7.00;99.90
18541;DHT22;9400;50.924;5.328;2022-12-01T02:55:54;7.00;99.90
18541;DHT22;9400;50.924;5.328;2022-12-01T02:58:24;7.00;99.90
18541;DHT22;9400;50.924;5.328;2022-12-01T03:01:05;7.00;99.90
18541;DHT22;9400;50.924;5.328;2022-12-01T03:03:55;7.00;99.90
18541;DHT22;9400;50.924;5.328;2022-12-01T03:06:34;7.00;99.90
18541;DHT22;9400;50.924;5.328;2022-12-01T03:09:11;6.90;99.90
18541;DHT22;9400;50.924;5.328;2022-12-01T03:11:46;6.90;99.90
18541;DHT22;9400;50.924;5.328;2022-12-01T03:14:25;6.90;99.90
18541;DHT22;9400;50.924;5.328;2022-12-01T03:17:02;6.90;99.90
18541;DHT22;9400;50.924;5.328;2022-12-01T03:19:36;7.00;99.90
18541;DHT22;9400;50.924;5.328;2022-12-01T03:22:10;7.00;99.90
18541;DHT22;9400;50.924;5.328;2022-12-01T03:24:43;7.00;99.90
18541;DHT22;9400;50.924;5.328;2022-12-01T03:27:12;7.00;99.90
18541;DHT22;9400;50.924;5.328;2022-12-01T03:29:44;6.90;99.90
18541;DHT22;9400;50.924;5.328;2022-12-01T03:32:16;7.00;99.90
18541;DHT22;9400;50.924;5.328;2022-12-01T03:34:49;7.10;99.90
18541;DHT22;9400;50.924;5.328;2022-12-01T03:37:21;7.00;99.90
18541;DHT22;9400;50.924;5.328;2022-12-01T03:39:53;6.90;99.90
18541;DHT22;9400;50.924;5.328;2022-12-01T03:42:24;6.80;99.90
18541;DHT22;9400;50.924;5.328;2022-12-01T03:44:56;6.90;99.90
18541;DHT22;9400;50.924;5.328;2022-12-01T03:47:26;6.90;99.90
18541;DHT22;9400;50.924;5.328;2022-12-01T03:49:59;6.90;99.90
18541;DHT22;9400;50.924;5.328;2022-12-01T03:52:37;6.80;99.90
18541;DHT22;9400;50.924;5.328;2022-12-01T03:55:10;6.90;99.90
18541;DHT22;9400;50.924;5.328;2022-12-01T03:57:43;6.90;99.90
18541;DHT22;9400;50.924;5.328;2022-12-01T04:00:14;6.90;99.90
18541;DHT22;9400;50.924;5.328;2022-12-01T04:02:42;7.00;99.90
18541;DHT22;9400;50.924;5.328;2022-12-01T04:05:12;7.00;99.90
18541;DHT22;9400;50.924;5.328;2022-12-01T04:07:39;7.00;99.90
18541;DHT22;9400;50.924;5.328;2022-12-01T04:10:07;7.00;99.90
18541;DHT22;9400;50.924;5.328;2022-12-01T04:12:34;7.00;99.90
18541;DHT22;9400;50.924;5.328;2022-12-01T04:15:04;7.00;99.90
18541;DHT22;9400;50.924;5.328;2022-12-01T04:17:33;7.00;99.90
18541;DHT22;9400;50.924;5.328;2022-12-01T04:20:01;7.10;99.90
18541;DHT22;9400;50.924;5.328;2022-12-01T04:22:33;7.10;99.90
18541;DHT22;9400;50.924;5.328;2022-12-01T04:25:00;7.00;99.90
18541;DHT22;9400;50.924;5.328;2022-12-01T04:27:28;7.00;99.90
18541;DHT22;9400;50.924;5.328;2022-12-01T04:29:55;6.80;99.90
18541;DHT22;9400;50.924;5.328;2022-12-01T04:32:24;6.80;99.90
18541;DHT22;9400;50.924;5.328;2022-12-01T04:34:52;6.80;99.90
18541;DHT22;9400;50.924;5.328;2022-12-01T04:37:19;6.70;99.90
18541;DHT22;9400;50.924;5.328;2022-12-01T04:39:48;6.80;99.90
18541;DHT22;9400;50.924;5.328;2022-12-01T04:42:15;6.80;99.90
18541;DHT22;9400;50.924;5.328;2022-12-01T04:44:43;6.90;99.90
18541;DHT22;9400;50.924;5.328;2022-12-01T04:47:10;6.80;99.90
18541;DHT22;9400;50.924;5.328;2022-12-01T04:49:38;6.80;99.90
18541;DHT22;9400;50.924;5.328;2022-12-01T04:52:06;6.80;99.90
18541;DHT22;9400;50.924;5.328;2022-12-01T04:54:33;6.70;99.90
18541;DHT22;9400;50.924;5.328;2022-12-01T04:57:02;6.70;99.90
18541;DHT22;9400;50.924;5.328;2022-12-01T04:59:30;6.80;99.90
18541;DHT22;9400;50.924;5.328;2022-12-01T05:01:57;6.60;99.90
18541;DHT22;9400;50.924;5.328;2022-12-01T05:04:27;6.70;99.90
18541;DHT22;9400;50.924;5.328;2022-12-01T05:06:55;6.80;99.90
18541;DHT22;9400;50.924;5.328;2022-12-01T05:09:23;6.80;99.90
18541;DHT22;9400;50.924;5.328;2022-12-01T05:11:50;6.70;99.90
18541;DHT22;9400;50.924;5.328;2022-12-01T05:14:21;6.80;99.90
18541;DHT22;9400;50.924;5.328;2022-12-01T05:16:48;6.90;99.90
18541;DHT22;9400;50.924;5.328;2022-12-01T05:19:16;6.80;99.90
18541;DHT22;9400;50.924;5.328;2022-12-01T05:22:01;6.80;99.90
18541;DHT22;9400;50.924;5.328;2022-12-01T05:24:28;6.70;99.90
18541;DHT22;9400;50.924;5.328;2022-12-01T05:26:56;6.70;99.90
18541;DHT22;9400;50.924;5.328;2022-12-01T05:29:25;6.70;99.90
18541;DHT22;9400;50.924;5.328;2022-12-01T05:31:53;6.60;99.90
18541;DHT22;9400;50.924;5.328;2022-12-01T05:34:20;6.60;99.90
18541;DHT22;9400;50.924;5.328;2022-12-01T05:36:48;6.60;99.90
18541;DHT22;9400;50.924;5.328;2022-12-01T05:39:16;6.60;99.90
18541;DHT22;9400;50.924;5.328;2022-12-01T05:41:43;6.70;99.90
18541;DHT22;9400;50.924;5.328;2022-12-01T05:44:11;6.70;99.90
18541;DHT22;9400;50.924;5.328;2022-12-01T05:46:40;6.70;99.90
18541;DHT22;9400;50.924;5.328;2022-12-01T05:49:07;6.60;99.90
18541;DHT22;9400;50.924;5.328;2022-12-01T05:51:34;6.70;99.90
18541;DHT22;9400;50.924;5.328;2022-12-01T05:54:02;6.60;99.90
18541;DHT22;9400;50.924;5.328;2022-12-01T05:56:29;6.60;99.90
18541;DHT22;9400;50.924;5.328;2022-12-01T05:58:57;6.70;99.90
18541;DHT22;9400;50.924;5.328;2022-12-01T06:01:25;6.70;99.90
18541;DHT22;9400;50.924;5.328;2022-12-01T06:03:54;6.70;99.90
18541;DHT22;9400;50.924;5.328;2022-12-01T06:06:22;6.70;99.90
18541;DHT22;9400;50.924;5.328;2022-12-01T06:08:50;6.70;99.90
18541;DHT22;9400;50.924;5.328;2022-12-01T06:11:17;6.80;99.90
18541;DHT22;9400;50.924;5.328;2022-12-01T06:13:45;6.70;99.90
18541;DHT22;9400;50.924;5.328;2022-12-01T06:16:13;6.70;99.90
18541;DHT22;9400;50.924;5.328;2022-12-01T06:18:40;6.70;99.90
18541;DHT22;9400;50.924;5.328;2022-12-01T06:21:09;6.60;99.90
18541;DHT22;9400;50.924;5.328;2022-12-01T06:23:37;6.60;99.90
18541;DHT22;9400;50.924;5.328;2022-12-01T06:26:04;6.60;99.90
18541;DHT22;9400;50.924;5.328;2022-12-01T06:28:32;6.60;99.90
18541;DHT22;9400;50.924;5.328;2022-12-01T06:30:59;6.60;99.90
18541;DHT22;9400;50.924;5.328;2022-12-01T06:33:26;6.70;99.90
18541;DHT22;9400;50.924;5.328;2022-12-01T06:35:57;6.70;99.90
18541;DHT22;9400;50.924;5.328;2022-12-01T06:38:29;6.70;99.90
18541;DHT22;9400;50.924;5.328;2022-12-01T06:40:57;6.70;99.90
18541;DHT22;9400;50.924;5.328;2022-12-01T06:43:24;6.80;99.90
18541;DHT22;9400;50.924;5.328;2022-12-01T06:45:52;6.80;99.90
18541;DHT22;9400;50.924;5.328;2022-12-01T06:48:19;6.80;99.90
18541;DHT22;9400;50.924;5.328;2022-12-01T06:50:47;6.70;99.90
18541;DHT22;9400;50.924;5.328;2022-12-01T06:53:14;6.70;99.90
18541;DHT22;9400;50.924;5.328;2022-12-01T06:55:43;6.60;99.90
18541;DHT22;9400;50.924;5.328;2022-12-01T06:58:10;6.60;99.90
18541;DHT22;9400;50.924;5.328;2022-12-01T07:00:37;6.60;99.90
18541;DHT22;9400;50.924;5.328;2022-12-01T07:03:05;6.60;99.90
18541;DHT22;9400;50.924;5.328;2022-12-01T07:05:32;6.70;99.90
18541;DHT22;9400;50.924;5.328;2022-12-01T07:08:00;6.70;99.90
18541;DHT22;9400;50.924;5.328;2022-12-01T07:10:27;6.60;99.90
18541;DHT22;9400;50.924;5.328;2022-12-01T07:12:57;6.60;99.90
18541;DHT22;9400;50.924;5.328;2022-12-01T07:15:25;6.70;99.90
18541;DHT22;9400;50.924;5.328;2022-12-01T07:17:53;6.70;99.90
18541;DHT22;9400;50.924;5.328;2022-12-01T07:20:21;6.70;99.90
18541;DHT22;9400;50.924;5.328;2022-12-01T07:22:48;6.70;99.90
18541;DHT22;9400;50.924;5.328;2022-12-01T07:25:16;6.70;99.90
18541;DHT22;9400;50.924;5.328;2022-12-01T07:27:43;6.70;99.90
18541;DHT22;9400;50.924;5.328;2022-12-01T07:30:13;6.80;99.90
18541;DHT22;9400;50.924;5.328;2022-12-01T07:32:40;6.80;99.90
18541;DHT22;9400;50.924;5.328;2022-12-01T07:35:08;6.70;99.90
18541;DHT22;9400;50.924;5.328;2022-12-01T07:37:36;6.70;99.90
18541;DHT22;9400;50.924;5.328;2022-12-01T07:40:05;6.80;99.90
18541;DHT22;9400;50.924;5.328;2022-12-01T07:42:32;6.80;99.90
18541;DHT22;9400;50.924;5.328;2022-12-01T07:44:59;6.80;99.90
18541;DHT22;9400;50.924;5.328;2022-12-01T07:47:28;6.80;99.90
18541;DHT22;9400;50.924;5.328;2022-12-01T07:49:56;6.70;99.90
18541;DHT22;9400;50.924;5.328;2022-12-01T07:52:24;6.70;99.90
18541;DHT22;9400;50.924;5.328;2022-12-01T07:54:52;6.80;99.90
18541;DHT22;9400;50.924;5.328;2022-12-01T07:57:19;6.80;99.90
18541;DHT22;9400;50.924;5.328;2022-12-01T07:59:48;6.70;99.90
18541;DHT22;9400;50.924;5.328;2022-12-01T08:02:18;6.70;99.90
18541;DHT22;9400;50.924;5.328;2022-12-01T08:04:47;6.80;99.90
18541;DHT22;9400;50.924;5.328;2022-12-01T08:07:14;6.80;99.90
18541;DHT22;9400;50.924;5.328;2022-12-01T08:09:42;6.70;99.90
18541;DHT22;9400;50.924;5.328;2022-12-01T08:12:10;6.70;99.90
18541;DHT22;9400;50.924;5.328;2022-12-01T08:14:38;6.80;99.90
18541;DHT22;9400;50.924;5.328;2022-12-01T08:17:05;6.80;99.90
18541;DHT22;9400;50.924;5.328;2022-12-01T08:19:33;6.90;99.90
18541;DHT22;9400;50.924;5.328;2022-12-01T08:22:02;6.90;99.90
18541;DHT22;9400;50.924;5.328;2022-12-01T08:24:32;6.90;99.90
18541;DHT22;9400;50.924;5.328;2022-12-01T08:27:00;7.00;99.90
18541;DHT22;9400;50.924;5.328;2022-12-01T08:29:28;6.90;99.90
18541;DHT22;9400;50.924;5.328;2022-12-01T08:31:58;7.00;99.90
18541;DHT22;9400;50.924;5.328;2022-12-01T08:34:26;7.00;99.90
18541;DHT22;9400;50.924;5.328;2022-12-01T08:36:53;7.10;99.90
18541;DHT22;9400;50.924;5.328;2022-12-01T08:39:25;7.10;99.90
18541;DHT22;9400;50.924;5.328;2022-12-01T08:41:53;7.00;99.90
18541;DHT22;9400;50.924;5.328;2022-12-01T08:44:20;7.10;99.90
18541;DHT22;9400;50.924;5.328;2022-12-01T08:46:48;7.00;99.90
18541;DHT22;9400;50.924;5.328;2022-12-01T08:49:15;7.10;99.90
18541;DHT22;9400;50.924;5.328;2022-12-01T08:51:43;7.00;99.90
18541;DHT22;9400;50.924;5.328;2022-12-01T08:54:11;7.10;99.90
18541;DHT22;9400;50.924;5.328;2022-12-01T08:56:42;7.20;99.90
18541;DHT22;9400;50.924;5.328;2022-12-01T08:59:13;7.10;99.90
18541;DHT22;9400;50.924;5.328;2022-12-01T09:01:40;7.20;99.90
18541;DHT22;9400;50.924;5.328;2022-12-01T09:04:19;7.20;99.90
18541;DHT22;9400;50.924;5.328;2022-12-01T09:06:48;7.20;99.90
18541;DHT22;9400;50.924;5.328;2022-12-01T09:09:18;7.10;99.90
18541;DHT22;9400;50.924;5.328;2022-12-01T09:11:47;7.10;99.90
18541;DHT22;9400;50.924;5.328;2022-12-01T09:14:18;7.20;99.90
18541;DHT22;9400;50.924;5.328;2022-12-01T09:16:47;7.30;99.90
18541;DHT22;9400;50.924;5.328;2022-12-01T09:19:17;7.40;99.90
18541;DHT22;9400;50.924;5.328;2022-12-01T09:21:44;7.40;99.90
18541;DHT22;9400;50.924;5.328;2022-12-01T09:24:13;7.40;99.90
18541;DHT22;9400;50.924;5.328;2022-12-01T09:26:41;7.30;99.90
18541;DHT22;9400;50.924;5.328;2022-12-01T09:29:11;7.30;99.90
18541;DHT22;9400;50.924;5.328;2022-12-01T09:31:40;7.30;99.90
18541;DHT22;9400;50.924;5.328;2022-12-01T09:34:11;7.30;99.90
18541;DHT22;9400;50.924;5.328;2022-12-01T09:36:39;7.30;99.90
18541;DHT22;9400;50.924;5.328;2022-12-01T09:39:09;7.40;99.90
18541;DHT22;9400;50.924;5.328;2022-12-01T09:41:41;7.40;99.90
18541;DHT22;9400;50.924;5.328;2022-12-01T09:44:16;7.50;99.90
18541;DHT22;9400;50.924;5.328;2022-12-01T09:46:51;7.50;99.90
18541;DHT22;9400;50.924;5.328;2022-12-01T09:49:23;7.40;99.90
18541;DHT22;9400;50.924;5.328;2022-12-01T09:51:52;7.40;99.90
18541;DHT22;9400;50.924;5.328;2022-12-01T09:54:21;7.40;99.90
18541;DHT22;9400;50.924;5.328;2022-12-01T09:56:51;7.30;99.90
18541;DHT22;9400;50.924;5.328;2022-12-01T09:59:22;7.40;99.90
18541;DHT22;9400;50.924;5.328;2022-12-01T10:01:54;7.30;99.90
18541;DHT22;9400;50.924;5.328;2022-12-01T10:04:28;7.40;99.90
18541;DHT22;9400;50.924;5.328;2022-12-01T10:06:59;7.40;99.90
18541;DHT22;9400;50.924;5.328;2022-12-01T10:09:34;7.50;99.90
18541;DHT22;9400;50.924;5.328;2022-12-01T10:12:10;7.50;99.90
18541;DHT22;9400;50.924;5.328;2022-12-01T10:14:43;7.40;99.90
18541;DHT22;9400;50.924;5.328;2022-12-01T10:17:23;7.50;99.90
18541;DHT22;9400;50.924;5.328;2022-12-01T10:19:58;7.60;99.90
18541;DHT22;9400;50.924;5.328;2022-12-01T10:23:05;7.60;99.90
18541;DHT22;9400;50.924;5.328;2022-12-01T10:25:46;7.60;99.90
18541;DHT22;9400;50.924;5.328;2022-12-01T10:28:52;7.60;99.90
18541;DHT22;9400;50.924;5.328;2022-12-01T10:31:30;7.70;99.90
18541;DHT22;9400;50.924;5.328;2022-12-01T10:34:02;7.50;99.90
18541;DHT22;9400;50.924;5.328;2022-12-01T10:36:31;7.60;99.90
18541;DHT22;9400;50.924;5.328;2022-12-01T10:38:59;7.60;99.90
18541;DHT22;9400;50.924;5.328;2022-12-01T10:41:29;7.60;99.90
18541;DHT22;9400;50.924;5.328;2022-12-01T10:43:58;7.70;99.90
18541;DHT22;9400;50.924;5.328;2022-12-01T10:46:34;7.70;99.90
18541;DHT22;9400;50.924;5.328;2022-12-01T10:49:07;7.70;99.90
18541;DHT22;9400;50.924;5.328;2022-12-01T10:51:48;7.60;99.90
18541;DHT22;9400;50.924;5.328;2022-12-01T10:54:16;7.60;99.90
18541;DHT22;9400;50.924;5.328;2022-12-01T10:56:47;7.60;99.90
18541;DHT22;9400;50.924;5.328;2022-12-01T10:59:23;7.60;99.90
18541;DHT22;9400;50.924;5.328;2022-12-01T11:01:52;7.80;99.90
18541;DHT22;9400;50.924;5.328;2022-12-01T11:04:38;7.70;99.90
18541;DHT22;9400;50.924;5.328;2022-12-01T11:07:16;7.70;99.90
18541;DHT22;9400;50.924;5.328;2022-12-01T11:09:45;7.70;99.90
18541;DHT22;9400;50.924;5.328;2022-12-01T11:12:16;7.90;99.90
18541;DHT22;9400;50.924;5.328;2022-12-01T11:14:48;8.00;99.90
18541;DHT22;9400;50.924;5.328;2022-12-01T11:17:26;7.90;99.90
18541;DHT22;9400;50.924;5.328;2022-12-01T11:19:54;7.80;99.90
18541;DHT22;9400;50.924;5.328;2022-12-01T11:22:24;7.80;99.90
18541;DHT22;9400;50.924;5.328;2022-12-01T11:25:01;7.90;99.90
18541;DHT22;9400;50.924;5.328;2022-12-01T11:27:31;7.70;99.90
18541;DHT22;9400;50.924;5.328;2022-12-01T11:30:03;7.70;99.90
18541;DHT22;9400;50.924;5.328;2022-12-01T11:32:34;7.70;99.90
18541;DHT22;9400;50.924;5.328;2022-12-01T11:35:06;7.80;99.90
18541;DHT22;9400;50.924;5.328;2022-12-01T11:37:46;7.90;99.90
18541;DHT22;9400;50.924;5.328;2022-12-01T11:40:17;7.80;99.90
18541;DHT22;9400;50.924;5.328;2022-12-01T11:42:48;7.90;99.90
18541;DHT22;9400;50.924;5.328;2022-12-01T11:45:28;7.90;99.90
18541;DHT22;9400;50.924;5.328;2022-12-01T11:48:01;7.90;99.90
18541;DHT22;9400;50.924;5.328;2022-12-01T11:50:31;8.10;99.90
18541;DHT22;9400;50.924;5.328;2022-12-01T11:52:58;8.20;99.90
18541;DHT22;9400;50.924;5.328;2022-12-01T11:55:27;8.10;99.90
18541;DHT22;9400;50.924;5.328;2022-12-01T11:57:59;8.10;99.90
18541;DHT22;9400;50.924;5.328;2022-12-01T12:00:40;8.10;99.90
18541;DHT22;9400;50.924;5.328;2022-12-01T12:03:24;8.00;99.90
18541;DHT22;9400;50.924;5.328;2022-12-01T12:06:15;7.90;99.90
18541;DHT22;9400;50.924;5.328;2022-12-01T12:08:59;7.80;99.90
18541;DHT22;9400;50.924;5.328;2022-12-01T12:11:35;7.80;99.90
18541;DHT22;9400;50.924;5.328;2022-12-01T12:14:22;7.80;99.90
18541;DHT22;9400;50.924;5.328;2022-12-01T12:17:13;7.90;99.90
18541;DHT22;9400;50.924;5.328;2022-12-01T12:20:04;8.30;99.90
18541;DHT22;9400;50.924;5.328;2022-12-01T12:22:43;8.80;99.90
18541;DHT22;9400;50.924;5.328;2022-12-01T12:25:23;9.00;99.90
18541;DHT22;9400;50.924;5.328;2022-12-01T12:27:58;9.40;99.90
18541;DHT22;9400;50.924;5.328;2022-12-01T12:30:30;10.20;99.90
18541;DHT22;9400;50.924;5.328;2022-12-01T12:33:17;9.80;99.90
18541;DHT22;9400;50.924;5.328;2022-12-01T12:35:53;9.40;99.90
18541;DHT22;9400;50.924;5.328;2022-12-01T12:38:41;9.20;99.90
18541;DHT22;9400;50.924;5.328;2022-12-01T12:41:21;8.90;99.90
18541;DHT22;9400;50.924;5.328;2022-12-01T12:44:01;8.90;99.90
18541;DHT22;9400;50.924;5.328;2022-12-01T12:46:39;9.00;99.90
18541;DHT22;9400;50.924;5.328;2022-12-01T12:49:19;9.10;99.90
18541;DHT22;9400;50.924;5.328;2022-12-01T12:51:54;9.10;99.90
18541;DHT22;9400;50.924;5.328;2022-12-01T12:54:26;9.20;99.90
18541;DHT22;9400;50.924;5.328;2022-12-01T12:57:01;9.70;99.90
18541;DHT22;9400;50.924;5.328;2022-12-01T12:59:35;9.50;99.90
18541;DHT22;9400;50.924;5.328;2022-12-01T13:02:20;9.00;99.90
18541;DHT22;9400;50.924;5.328;2022-12-01T13:04:53;8.80;99.90
18541;DHT22;9400;50.924;5.328;2022-12-01T13:07:33;8.80;99.90
18541;DHT22;9400;50.924;5.328;2022-12-01T13:10:07;8.70;99.90
18541;DHT22;9400;50.924;5.328;2022-12-01T13:12:39;8.70;99.90
18541;DHT22;9400;50.924;5.328;2022-12-01T13:15:15;8.80;99.90
18541;DHT22;9400;50.924;5.328;2022-12-01T13:17:46;8.60;99.90
18541;DHT22;9400;50.924;5.328;2022-12-01T13:20:15;8.40;99.90
18541;DHT22;9400;50.924;5.328;2022-12-01T13:22:46;8.30;99.90
18541;DHT22;9400;50.924;5.328;2022-12-01T13:25:15;8.20;99.90
18541;DHT22;9400;50.924;5.328;2022-12-01T13:27:44;8.30;99.90
18541;DHT22;9400;50.924;5.328;2022-12-01T13:30:18;8.40;99.90
18541;DHT22;9400;50.924;5.328;2022-12-01T13:32:46;8.30;99.90
18541;DHT22;9400;50.924;5.328;2022-12-01T13:35:23;8.30;99.90
18541;DHT22;9400;50.924;5.328;2022-12-01T13:38:15;8.30;99.90
18541;DHT22;9400;50.924;5.328;2022-12-01T13:40:40;8.30;99.90
18541;DHT22;9400;50.924;5.328;2022-12-01T13:43:16;8.20;99.90
18541;DHT22;9400;50.924;5.328;2022-12-01T13:45:45;8.10;99.90
18541;DHT22;9400;50.924;5.328;2022-12-01T13:48:51;8.00;99.90
18541;DHT22;9400;50.924;5.328;2022-12-01T13:51:19;8.20;99.90
18541;DHT22;9400;50.924;5.328;2022-12-01T13:54:03;8.20;99.90
18541;DHT22;9400;50.924;5.328;2022-12-01T13:56:44;8.00;99.90
18541;DHT22;9400;50.924;5.328;2022-12-01T13:59:40;8.00;99.90
18541;DHT22;9400;50.924;5.328;2022-12-01T14:02:28;7.90;99.90
18541;DHT22;9400;50.924;5.328;2022-12-01T14:05:50;8.00;99.90
18541;DHT22;9400;50.924;5.328;2022-12-01T14:08:23;8.10;99.90
18541;DHT22;9400;50.924;5.328;2022-12-01T14:10:56;8.00;99.90
18541;DHT22;9400;50.924;5.328;2022-12-01T14:13:24;8.00;99.90
18541;DHT22;9400;50.924;5.328;2022-12-01T14:15:55;7.90;99.90
18541;DHT22;9400;50.924;5.328;2022-12-01T14:18:31;7.80;99.90
18541;DHT22;9400;50.924;5.328;2022-12-01T14:21:01;7.80;99.90
18541;DHT22;9400;50.924;5.328;2022-12-01T14:23:31;7.80;99.90
18541;DHT22;9400;50.924;5.328;2022-12-01T14:26:13;7.80;99.90
18541;DHT22;9400;50.924;5.328;2022-12-01T14:29:07;7.70;99.90
18541;DHT22;9400;50.924;5.328;2022-12-01T14:34:40;7.70;99.90
18541;DHT22;9400;50.924;5.328;2022-12-01T14:37:10;7.70;99.90
18541;DHT22;9400;50.924;5.328;2022-12-01T14:39:40;7.60;99.90
18541;DHT22;9400;50.924;5.328;2022-12-01T14:42:29;7.70;99.90
18541;DHT22;9400;50.924;5.328;2022-12-01T14:45:18;7.70;99.90
18541;DHT22;9400;50.924;5.328;2022-12-01T14:47:51;7.70;99.90
18541;DHT22;9400;50.924;5.328;2022-12-01T14:50:23;7.70;99.90
18541;DHT22;9400;50.924;5.328;2022-12-01T14:53:00;7.70;99.90
18541;DHT22;9400;50.924;5.328;2022-12-01T14:55:33;7.80;99.90
18541;DHT22;9400;50.924;5.328;2022-12-01T14:58:05;7.80;99.90
18541;DHT22;9400;50.924;5.328;2022-12-01T15:00:36;7.70;99.90
18541;DHT22;9400;50.924;5.328;2022-12-01T15:03:07;7.60;99.90
18541;DHT22;9400;50.924;5.328;2022-12-01T15:05:38;7.60;99.90
18541;DHT22;9400;50.924;5.328;2022-12-01T15:08:15;7.60;99.90
18541;DHT22;9400;50.924;5.328;2022-12-01T15:10:50;7.70;99.90
18541;DHT22;9400;50.924;5.328;2022-12-01T15:13:25;7.70;99.90
18541;DHT22;9400;50.924;5.328;2022-12-01T15:15:55;7.60;99.90
18541;DHT22;9400;50.924;5.328;2022-12-01T15:18:28;7.70;99.90
18541;DHT22;9400;50.924;5.328;2022-12-01T15:20:58;7.70;99.90
18541;DHT22;9400;50.924;5.328;2022-12-01T15:23:27;7.70;99.90
18541;DHT22;9400;50.924;5.328;2022-12-01T15:25:55;7.70;99.90
18541;DHT22;9400;50.924;5.328;2022-12-01T15:28:31;7.70;99.90
18541;DHT22;9400;50.924;5.328;2022-12-01T15:31:02;7.70;99.90
18541;DHT22;9400;50.924;5.328;2022-12-01T15:33:33;7.60;99.90
18541;DHT22;9400;50.924;5.328;2022-12-01T15:36:03;7.70;99.90
18541;DHT22;9400;50.924;5.328;2022-12-01T15:38:35;7.60;99.90
18541;DHT22;9400;50.924;5.328;2022-12-01T15:41:04;7.50;99.90
18541;DHT22;9400;50.924;5.328;2022-12-01T15:43:35;7.50;99.90
18541;DHT22;9400;50.924;5.328;2022-12-01T15:46:12;7.70;99.90
18541;DHT22;9400;50.924;5.328;2022-12-01T15:48:41;7.70;99.90
18541;DHT22;9400;50.924;5.328;2022-12-01T15:51:12;7.70;99.90
18541;DHT22;9400;50.924;5.328;2022-12-01T15:53:46;7.80;99.90
18541;DHT22;9400;50.924;5.328;2022-12-01T15:56:20;7.70;99.90
18541;DHT22;9400;50.924;5.328;2022-12-01T15:58:55;7.80;99.90
18541;DHT22;9400;50.924;5.328;2022-12-01T16:01:29;7.70;99.90
18541;DHT22;9400;50.924;5.328;2022-12-01T16:04:00;7.70;99.90
18541;DHT22;9400;50.924;5.328;2022-12-01T16:06:30;7.60;99.90
18541;DHT22;9400;50.924;5.328;2022-12-01T16:09:01;7.60;99.90
18541;DHT22;9400;50.924;5.328;2022-12-01T16:11:31;7.60;99.90
18541;DHT22;9400;50.924;5.328;2022-12-01T16:14:02;7.60;99.90
18541;DHT22;9400;50.924;5.328;2022-12-01T16:16:42;7.60;99.90
18541;DHT22;9400;50.924;5.328;2022-12-01T16:19:28;7.70;99.90
18541;DHT22;9400;50.924;5.328;2022-12-01T16:22:14;7.60;99.90
18541;DHT22;9400;50.924;5.328;2022-12-01T16:24:47;7.50;99.90
18541;DHT22;9400;50.924;5.328;2022-12-01T16:27:21;7.40;99.90
18541;DHT22;9400;50.924;5.328;2022-12-01T16:29:53;7.40;99.90
18541;DHT22;9400;50.924;5.328;2022-12-01T16:32:22;7.50;99.90
18541;DHT22;9400;50.924;5.328;2022-12-01T16:34:52;7.50;99.90
18541;DHT22;9400;50.924;5.328;2022-12-01T16:37:20;7.50;99.90
18541;DHT22;9400;50.924;5.328;2022-12-01T16:39:47;7.50;99.90